Time;durP1;ratioP1;P1;durP2;ratioP2;P2;SDS_P1;SDS_P2;PMS_P1;PMS_P2;Temp;Humidity;BMP_temperature;BMP_pressure;BME280_temperature;BME280_humidity;BME280_pressure;Samples;Min_cycle;Max_cycle;Signal;HPM_P1;HPM_P2
2022/05/16 00:00:20;;;;;;;7.17;4.00;;;16.50;99.90;;;;;;5071781;28;20224;-62
2022/05/16 00:02:47;;;;;;;9.47;4.13;;;16.40;99.90;;;;;;5071295;28;20311;-62
2022/05/16 00:05:15;;;;;;;7.30;3.90;;;16.40;99.90;;;;;;5071428;28;20208;-62
2022/05/16 00:07:42;;;;;;;6.53;3.40;;;16.40;99.90;;;;;;5071246;28;20250;-62
2022/05/16 00:10:11;;;;;;;14.13;3.60;;;16.30;99.90;;;;;;5071492;28;20201;-62
2022/05/16 00:12:38;;;;;;;4.60;3.67;;;16.30;99.90;;;;;;5071511;28;20274;-62
2022/05/16 00:15:07;;;;;;;6.37;3.53;;;16.20;99.90;;;;;;5071355;28;20215;-62
2022/05/16 00:17:34;;;;;;;5.67;3.53;;;16.20;99.90;;;;;;5071430;28;20219;-60
2022/05/16 00:20:00;;;;;;;5.63;3.40;;;16.20;99.90;;;;;;5071422;28;20225;-62
2022/05/16 00:22:27;;;;;;;7.27;3.57;;;16.20;99.90;;;;;;5071513;28;20225;-61
2022/05/16 00:24:54;;;;;;;6.07;3.53;;;16.20;99.90;;;;;;5070897;28;20581;-61
2022/05/16 00:27:22;;;;;;;6.33;3.70;;;16.20;99.90;;;;;;5071047;28;20209;-62
2022/05/16 00:29:49;;;;;;;9.30;4.40;;;16.20;99.90;;;;;;5071295;28;20197;-62
2022/05/16 00:32:16;;;;;;;5.93;3.70;;;16.10;99.90;;;;;;5071208;28;20286;-61
2022/05/16 00:34:43;;;;;;;7.43;4.10;;;16.10;99.90;;;;;;5071271;28;20912;-61
2022/05/16 00:37:10;;;;;;;7.30;3.90;;;16.10;99.90;;;;;;5070787;28;20205;-61
2022/05/16 00:39:37;;;;;;;6.83;3.97;;;16.00;99.90;;;;;;5071186;28;20229;-62
2022/05/16 00:42:04;;;;;;;7.20;3.80;;;15.90;99.90;;;;;;5071022;28;20239;-62
2022/05/16 00:44:33;;;;;;;7.20;3.70;;;15.80;99.90;;;;;;5071374;28;20209;-62
2022/05/16 00:46:59;;;;;;;7.90;3.60;;;15.70;99.90;;;;;;5070881;28;20611;-62
2022/05/16 00:49:29;;;;;;;7.13;4.40;;;15.60;99.90;;;;;;5073493;28;20671;-61
2022/05/16 00:52:01;;;;;;;8.27;3.90;;;15.50;99.90;;;;;;5075405;28;20278;-61
2022/05/16 00:54:32;;;;;;;7.27;3.73;;;15.50;99.90;;;;;;5075244;28;20270;-62
2022/05/16 00:57:04;;;;;;;4.93;3.80;;;15.50;99.90;;;;;;5074699;28;20208;-62
2022/05/16 00:59:40;;;;;;;7.93;3.80;;;15.40;99.90;;;;;;5074825;28;20221;-61
2022/05/16 01:04:51;;;;;;;7.73;4.43;;;15.40;99.90;;;;;;5074382;28;20208;-62
2022/05/16 01:07:25;;;;;;;7.47;4.07;;;15.30;99.90;;;;;;5074065;28;20209;-62
2022/05/16 01:09:52;;;;;;;7.57;3.70;;;15.30;99.90;;;;;;5074207;28;20753;-61
2022/05/16 01:12:19;;;;;;;8.70;3.90;;;15.20;99.90;;;;;;5074288;28;20294;-62
2022/05/16 01:14:51;;;;;;;10.47;4.83;;;15.20;99.90;;;;;;5073826;28;20209;-62
2022/05/16 01:17:19;;;;;;;8.37;3.93;;;15.10;99.90;;;;;;5072072;28;20220;-62
2022/05/16 01:19:46;;;;;;;6.40;3.73;;;15.10;99.90;;;;;;5072685;28;20228;-62
2022/05/16 01:22:24;;;;;;;7.27;4.37;;;15.10;99.90;;;;;;5072933;28;20233;-62
2022/05/16 01:24:51;;;;;;;7.57;3.97;;;15.00;99.90;;;;;;5072901;28;20204;-62
2022/05/16 01:27:18;;;;;;;10.23;4.87;;;15.00;99.90;;;;;;5071450;28;20216;-62
2022/05/16 01:29:45;;;;;;;9.07;4.20;;;15.10;99.90;;;;;;5073057;28;20208;-62
2022/05/16 01:32:11;;;;;;;8.03;4.63;;;15.10;99.90;;;;;;5072601;28;20217;-62
2022/05/16 01:34:40;;;;;;;7.23;4.27;;;15.10;99.90;;;;;;5074106;28;20201;-61
2022/05/16 01:37:07;;;;;;;9.37;4.57;;;15.10;99.90;;;;;;5073647;28;20602;-61
2022/05/16 01:39:35;;;;;;;6.77;4.20;;;15.00;99.90;;;;;;5073518;28;20592;-62
2022/05/16 01:42:03;;;;;;;9.53;4.53;;;15.00;99.90;;;;;;5073339;28;20279;-61
2022/05/16 01:44:29;;;;;;;7.13;5.13;;;15.00;99.90;;;;;;5073754;28;20255;-61
2022/05/16 01:46:56;;;;;;;6.17;4.50;;;15.00;99.90;;;;;;5073194;28;20208;-61
2022/05/16 01:49:23;;;;;;;8.10;4.47;;;14.90;99.90;;;;;;5073697;28;20205;-61
2022/05/16 01:51:50;;;;;;;10.37;4.27;;;14.90;99.90;;;;;;5073684;28;20642;-60
2022/05/16 01:54:17;;;;;;;8.27;4.67;;;14.90;99.90;;;;;;5073834;28;20207;-61
2022/05/16 01:56:45;;;;;;;8.80;4.90;;;14.90;99.90;;;;;;5072812;28;20208;-62
2022/05/16 01:59:12;;;;;;;10.47;4.60;;;14.90;99.90;;;;;;5073602;28;20254;-61
2022/05/16 02:01:39;;;;;;;7.87;5.43;;;14.80;99.90;;;;;;5071878;28;20239;-62
2022/05/16 02:04:06;;;;;;;10.43;5.40;;;14.80;99.90;;;;;;5073249;28;20254;-59
2022/05/16 02:06:32;;;;;;;6.53;4.47;;;14.70;99.90;;;;;;5072906;28;20212;-62
2022/05/16 02:08:59;;;;;;;5.90;4.23;;;14.70;99.90;;;;;;5073274;28;20740;-61
2022/05/16 02:11:26;;;;;;;10.07;5.20;;;14.70;99.90;;;;;;5073285;28;20745;-60
2022/05/16 02:13:54;;;;;;;10.80;5.33;;;14.70;99.90;;;;;;5073031;28;20675;-61
2022/05/16 02:16:22;;;;;;;9.50;5.47;;;14.60;99.90;;;;;;5072922;28;20216;-62
2022/05/16 02:18:48;;;;;;;10.53;5.63;;;14.50;99.90;;;;;;5072956;28;20207;-61
2022/05/16 02:26:46;;;;;;;9.97;5.37;;;14.50;99.90;;;;;;5072364;28;20669;-62
2022/05/16 02:29:15;;;;;;;12.73;5.37;;;14.50;99.90;;;;;;5072628;28;20205;-62
2022/05/16 02:31:42;;;;;;;7.30;5.03;;;14.40;99.90;;;;;;5072955;28;20228;-60
2022/05/16 02:34:09;;;;;;;11.03;5.43;;;14.40;99.90;;;;;;5072899;28;20211;-61
2022/05/16 02:36:36;;;;;;;9.20;4.73;;;14.40;99.90;;;;;;5072216;28;20612;-62
2022/05/16 02:39:03;;;;;;;8.37;4.97;;;14.40;99.90;;;;;;5072175;28;20818;-62
2022/05/16 02:41:29;;;;;;;12.00;6.50;;;14.40;99.90;;;;;;5072556;28;20664;-61
2022/05/16 02:43:56;;;;;;;8.10;4.90;;;14.30;1.00;;;;;;5072609;28;20617;-62
2022/05/16 02:46:24;;;;;;;8.97;5.00;;;14.30;1.00;;;;;;5071843;28;20299;-61
2022/05/16 02:48:51;;;;;;;9.50;5.03;;;14.30;1.00;;;;;;5072419;28;20669;-61
2022/05/16 02:51:17;;;;;;;10.33;4.87;;;14.30;1.00;;;;;;5072283;28;20277;-62
2022/05/16 02:53:44;;;;;;;8.23;4.50;;;14.30;1.00;;;;;;5072623;28;20269;-62
2022/05/16 02:56:11;;;;;;;9.43;5.07;;;14.30;1.00;;;;;;5072138;28;20660;-62
2022/05/16 02:58:38;;;;;;;6.43;4.30;;;14.30;1.00;;;;;;5072240;28;20207;-61
2022/05/16 03:01:05;;;;;;;10.33;5.03;;;14.30;1.00;;;;;;5071922;28;20232;-61
2022/05/16 03:03:33;;;;;;;8.83;4.90;;;14.30;1.00;;;;;;5072236;28;20241;-62
2022/05/16 03:06:00;;;;;;;9.30;4.87;;;14.40;1.00;;;;;;5072041;28;20211;-61
2022/05/16 03:08:26;;;;;;;8.30;4.47;;;14.30;1.00;;;;;;5071959;28;20246;-62
2022/05/16 03:10:53;;;;;;;10.07;5.13;;;14.30;1.00;;;;;;5072233;28;20276;-61
2022/05/16 03:13:20;;;;;;;8.70;4.70;;;14.40;99.90;;;;;;5070924;28;20622;-62
2022/05/16 03:15:46;;;;;;;9.50;4.77;;;14.40;99.90;;;;;;5071812;28;20242;-62
2022/05/16 03:18:13;;;;;;;5.90;4.40;;;14.40;99.90;;;;;;5072057;28;20209;-61
2022/05/16 03:20:41;;;;;;;9.37;4.70;;;14.40;99.90;;;;;;5071791;28;20227;-61
2022/05/16 03:23:08;;;;;;;8.93;4.80;;;14.40;99.90;;;;;;5072037;28;20265;-61
2022/05/16 03:25:34;;;;;;;10.30;5.73;;;14.30;99.90;;;;;;5071807;28;20202;-62
2022/05/16 03:28:01;;;;;;;13.10;4.67;;;14.30;99.90;;;;;;5071532;28;20204;-62
2022/05/16 03:30:28;;;;;;;6.67;4.47;;;14.30;99.90;;;;;;5072049;28;20249;-62
2022/05/16 03:32:55;;;;;;;6.53;4.87;;;14.40;99.90;;;;;;5072016;28;20230;-61
2022/05/16 03:35:22;;;;;;;6.47;4.03;;;14.40;99.90;;;;;;5071554;28;20218;-62
2022/05/16 03:37:50;;;;;;;5.77;4.00;;;14.40;99.90;;;;;;5071527;28;20206;-62
2022/05/16 03:43:01;;;;;;;6.27;3.27;;;14.50;99.90;;;;;;5071674;28;20300;-62
2022/05/16 03:45:28;;;;;;;8.73;3.50;;;14.60;99.90;;;;;;5071999;28;20207;-62
2022/05/16 03:47:54;;;;;;;6.87;3.53;;;14.70;99.90;;;;;;5071468;28;20208;-62
2022/05/16 03:50:21;;;;;;;8.00;3.73;;;14.90;99.90;;;;;;5072001;28;20204;-62
2022/05/16 03:52:49;;;;;;;10.20;3.50;;;15.10;99.90;;;;;;5071493;28;20278;-62
2022/05/16 03:55:18;;;;;;;8.37;3.30;;;15.10;99.90;;;;;;5071672;28;20659;-62
2022/05/16 03:57:45;;;;;;;7.33;4.20;;;15.20;99.90;;;;;;5071152;28;20266;-61
2022/05/16 04:00:15;;;;;;;6.77;3.67;;;15.30;99.90;;;;;;5071332;28;20227;-62
2022/05/16 04:02:42;;;;;;;6.60;3.00;;;15.30;99.90;;;;;;5071712;28;20573;-62
2022/05/16 04:05:10;;;;;;;6.83;4.40;;;15.40;99.90;;;;;;5071360;28;20630;-61
2022/05/16 04:07:37;;;;;;;6.87;3.53;;;15.40;99.90;;;;;;5071153;28;20208;-61
2022/05/16 04:10:06;;;;;;;6.50;3.63;;;15.50;99.90;;;;;;5071543;28;20216;-62
2022/05/16 04:12:33;;;;;;;5.40;3.10;;;15.50;99.90;;;;;;5071387;28;20707;-62
2022/05/16 04:15:00;;;;;;;4.07;3.17;;;15.50;99.90;;;;;;5071342;28;20266;-62
2022/05/16 04:17:27;;;;;;;4.87;3.50;;;15.60;99.90;;;;;;5071059;28;20200;-62
2022/05/16 04:19:53;;;;;;;7.17;3.60;;;15.60;99.90;;;;;;5071419;28;20201;-62
2022/05/16 04:22:21;;;;;;;6.13;3.30;;;15.60;99.90;;;;;;5071128;28;20233;-62
2022/05/16 04:24:47;;;;;;;4.17;2.80;;;15.70;99.90;;;;;;5074815;28;20215;-62
2022/05/16 04:27:15;;;;;;;5.07;2.70;;;15.70;99.90;;;;;;5074919;28;20562;-62
2022/05/16 04:29:42;;;;;;;6.43;3.20;;;15.70;99.90;;;;;;5075119;28;20255;-62
2022/05/16 04:32:09;;;;;;;6.10;3.20;;;15.80;99.90;;;;;;5074931;28;20221;-62
2022/05/16 04:34:35;;;;;;;9.13;3.00;;;15.80;99.90;;;;;;5075016;28;20650;-62
2022/05/16 04:37:02;;;;;;;6.37;2.77;;;15.80;99.90;;;;;;5074924;28;20269;-62
2022/05/16 04:39:29;;;;;;;5.50;3.00;;;15.90;99.90;;;;;;5075092;28;20675;-62
2022/05/16 04:44:40;;;;;;;5.20;3.00;;;16.00;99.90;;;;;;5043907;28;20298;-61
2022/05/16 04:47:08;;;;;;;5.50;2.77;;;16.10;99.90;;;;;;5073714;28;20623;-61
2022/05/16 04:49:35;;;;;;;6.23;2.97;;;16.10;99.90;;;;;;5075047;28;20209;-62
2022/05/16 04:52:02;;;;;;;7.10;2.90;;;16.20;99.90;;;;;;5074820;28;20225;-61
2022/05/16 04:54:29;;;;;;;8.53;2.80;;;16.20;99.90;;;;;;5074764;28;20614;-62
2022/05/16 04:56:56;;;;;;;5.03;2.50;;;16.20;99.90;;;;;;5074705;28;20209;-62
2022/05/16 04:59:23;;;;;;;6.50;3.00;;;16.30;99.90;;;;;;5074739;28;20559;-61
2022/05/16 05:01:51;;;;;;;4.00;2.73;;;16.30;99.90;;;;;;5074425;28;20278;-62
2022/05/16 05:04:18;;;;;;;6.23;3.13;;;16.30;99.90;;;;;;5074531;28;20211;-62
2022/05/16 05:06:44;;;;;;;5.10;2.67;;;16.40;99.90;;;;;;5074150;28;20299;-62
2022/05/16 05:09:11;;;;;;;6.47;2.50;;;16.50;99.90;;;;;;5074696;28;20254;-62
2022/05/16 05:14:35;;;;;;;8.47;2.73;;;16.70;99.90;;;;;;5074380;28;20227;-62
2022/05/16 05:17:06;;;;;;;3.70;2.63;;;16.90;99.90;;;;;;5073737;28;20223;-62
2022/05/16 05:19:33;;;;;;;5.13;2.60;;;17.10;99.90;;;;;;5074244;28;20258;-60
2022/05/16 05:22:00;;;;;;;4.07;2.67;;;17.20;99.90;;;;;;5074111;28;20229;-62
2022/05/16 05:24:27;;;;;;;4.03;2.73;;;17.20;99.90;;;;;;5074383;28;20219;-62
2022/05/16 05:26:54;;;;;;;6.03;2.83;;;17.40;99.90;;;;;;5074868;28;20213;-61
2022/05/16 05:29:22;;;;;;;9.73;3.67;;;17.40;99.90;;;;;;5074006;28;20203;-61
2022/05/16 05:31:50;;;;;;;6.57;4.10;;;17.40;99.90;;;;;;5074029;28;20217;-62
2022/05/16 05:34:18;;;;;;;10.83;4.90;;;17.40;99.90;;;;;;5072780;28;20240;-60
2022/05/16 05:36:45;;;;;;;8.50;4.23;;;17.40;99.90;;;;;;5072684;28;20251;-61
2022/05/16 05:39:16;;;;;;;8.47;3.40;;;17.50;99.90;;;;;;5073667;28;20671;-61
2022/05/16 05:41:43;;;;;;;6.63;2.80;;;17.60;99.90;;;;;;5074096;28;20293;-62
2022/05/16 05:44:10;;;;;;;4.17;2.43;;;17.80;99.90;;;;;;5073641;28;20342;-62
2022/05/16 05:46:38;;;;;;;5.70;2.77;;;18.10;99.90;;;;;;5073558;28;20208;-62
2022/05/16 05:49:05;;;;;;;5.70;2.50;;;18.40;99.90;;;;;;5073855;28;20266;-62
2022/05/16 05:51:34;;;;;;;5.77;2.70;;;18.60;99.90;;;;;;5073738;28;20225;-62
2022/05/16 05:54:00;;;;;;;3.13;2.20;;;18.80;99.90;;;;;;5073924;28;20306;-62
2022/05/16 05:56:28;;;;;;;5.10;2.27;;;19.00;99.90;;;;;;5073390;28;20286;-61
2022/05/16 05:58:55;;;;;;;3.67;2.20;;;19.10;99.90;;;;;;5069027;28;20226;-59
2022/05/16 06:01:22;;;;;;;8.37;3.00;;;19.30;99.90;;;;;;5048818;28;20239;-61
2022/05/16 06:03:49;;;;;;;4.43;2.23;;;19.40;99.90;;;;;;5052826;28;20206;-61
2022/05/16 06:06:16;;;;;;;8.23;2.63;;;19.50;99.90;;;;;;5052339;28;20275;-58
2022/05/16 06:08:44;;;;;;;4.20;2.70;;;19.60;99.90;;;;;;5053176;28;20205;-60
2022/05/16 06:11:10;;;;;;;4.70;2.40;;;19.70;99.90;;;;;;5052844;28;20256;-62
2022/05/16 06:13:38;;;;;;;4.57;2.30;;;19.70;99.90;;;;;;5052986;28;20222;-65
2022/05/16 06:16:09;;;;;;;5.23;2.70;;;19.80;99.90;;;;;;5051866;28;20217;-62
2022/05/16 06:18:36;;;;;;;5.20;2.37;;;19.90;99.90;;;;;;5052049;28;20236;-60
2022/05/16 06:21:03;;;;;;;5.77;2.47;;;20.00;99.90;;;;;;5052660;28;20229;-62
2022/05/16 06:23:31;;;;;;;4.60;2.33;;;20.00;99.90;;;;;;5052739;28;20209;-61
2022/05/16 06:26:00;;;;;;;7.17;2.63;;;20.10;99.90;;;;;;5052290;28;20255;-60
2022/05/16 06:28:29;;;;;;;4.80;2.47;;;20.10;99.90;;;;;;5052138;28;20216;-61
2022/05/16 06:30:56;;;;;;;6.97;2.40;;;20.20;99.90;;;;;;5052295;28;20212;-62
2022/05/16 06:33:25;;;;;;;4.73;2.30;;;20.20;99.90;;;;;;5051845;28;20248;-63
2022/05/16 06:35:52;;;;;;;3.70;2.67;;;20.20;99.90;;;;;;5052093;28;20206;-61
2022/05/16 06:38:22;;;;;;;5.50;2.37;;;20.20;99.90;;;;;;5052567;28;20210;-63
2022/05/16 06:40:49;;;;;;;10.77;2.80;;;20.20;99.90;;;;;;5052444;28;20237;-61
2022/05/16 06:43:19;;;;;;;3.90;2.27;;;20.20;99.90;;;;;;5052046;28;20623;-62
2022/05/16 06:45:46;;;;;;;8.60;2.80;;;20.30;99.90;;;;;;5051986;28;20263;-59
2022/05/16 06:48:13;;;;;;;7.13;3.03;;;20.20;99.90;;;;;;5051323;28;20259;-60
2022/05/16 06:50:42;;;;;;;6.47;2.97;;;20.30;99.90;;;;;;5052458;28;20256;-60
2022/05/16 06:53:12;;;;;;;6.90;3.00;;;20.40;99.90;;;;;;5052023;28;20210;-59
2022/05/16 06:55:39;;;;;;;4.13;2.70;;;20.40;99.90;;;;;;5052319;28;20259;-60
2022/05/16 06:58:06;;;;;;;4.70;2.60;;;20.40;99.90;;;;;;5052183;28;20212;-62
2022/05/16 07:00:34;;;;;;;6.07;3.00;;;20.50;99.90;;;;;;5051600;28;20263;-61
2022/05/16 07:03:01;;;;;;;8.27;2.60;;;20.50;99.90;;;;;;5051864;28;20229;-61
2022/05/16 07:05:28;;;;;;;5.17;2.70;;;20.60;99.90;;;;;;5051949;28;20206;-61
2022/05/16 07:07:57;;;;;;;4.87;3.00;;;20.50;99.90;;;;;;5051176;28;20210;-62
2022/05/16 07:10:23;;;;;;;5.70;2.90;;;20.40;99.90;;;;;;5051088;28;20209;-61
2022/05/16 07:12:50;;;;;;;7.93;2.67;;;20.50;99.90;;;;;;5050494;28;20228;-62
2022/05/16 07:15:19;;;;;;;5.50;2.60;;;20.60;99.90;;;;;;5051156;28;20213;-61
2022/05/16 07:17:47;;;;;;;4.73;2.20;;;20.70;99.90;;;;;;5050881;28;20226;-61
2022/05/16 07:20:15;;;;;;;5.03;2.40;;;20.70;99.90;;;;;;5051329;28;20205;-61
2022/05/16 07:22:45;;;;;;;4.43;2.30;;;20.60;99.90;;;;;;5051390;28;20229;-62
2022/05/16 07:25:12;;;;;;;6.77;2.53;;;20.70;99.90;;;;;;5051494;28;20301;-62
2022/05/16 07:30:24;;;;;;;7.00;2.67;;;20.60;99.90;;;;;;5051532;28;20196;-60
2022/05/16 07:32:53;;;;;;;4.10;2.43;;;20.60;99.90;;;;;;5051166;28;20232;-63
2022/05/16 07:35:24;;;;;;;6.57;2.77;;;20.50;99.90;;;;;;5051469;28;20201;-60
2022/05/16 07:37:53;;;;;;;7.33;2.37;;;20.60;99.90;;;;;;5050780;28;20300;-61
2022/05/16 07:40:21;;;;;;;5.83;2.63;;;20.50;99.90;;;;;;5051218;28;20301;-62
2022/05/16 07:42:48;;;;;;;7.73;2.90;;;20.50;99.90;;;;;;5050108;28;20307;-62
2022/05/16 07:45:15;;;;;;;3.00;2.23;;;20.60;99.90;;;;;;5051442;28;20259;-61
2022/05/16 07:47:42;;;;;;;5.07;2.70;;;20.40;99.90;;;;;;5050770;28;20206;-62
2022/05/16 07:50:10;;;;;;;6.23;2.80;;;20.50;99.90;;;;;;5051149;28;20205;-62
2022/05/16 07:52:38;;;;;;;4.27;2.53;;;20.40;99.90;;;;;;5050956;28;20313;-64
2022/05/16 07:55:06;;;;;;;6.23;2.47;;;20.50;99.90;;;;;;5051699;28;20205;-63
2022/05/16 07:57:33;;;;;;;6.17;2.67;;;20.50;99.90;;;;;;5050991;28;20209;-63
2022/05/16 07:59:59;;;;;;;7.10;2.70;;;20.40;99.90;;;;;;5054308;28;20259;-63
2022/05/16 08:02:26;;;;;;;3.90;2.43;;;20.50;99.90;;;;;;5055593;28;20584;-61
2022/05/16 08:04:53;;;;;;;7.93;2.83;;;20.30;99.90;;;;;;5055245;28;20205;-62
2022/05/16 08:07:21;;;;;;;6.87;2.83;;;20.30;99.90;;;;;;5054843;28;20266;-63
2022/05/16 08:12:34;;;;;;;5.50;2.80;;;20.40;99.90;;;;;;5055714;28;20342;-64
2022/05/16 08:15:01;;;;;;;7.73;2.80;;;20.30;99.90;;;;;;5055168;28;20259;-62
2022/05/16 08:17:28;;;;;;;5.77;2.60;;;20.40;99.90;;;;;;5054989;28;20743;-63
2022/05/16 08:19:56;;;;;;;6.70;2.57;;;20.50;99.90;;;;;;5054899;28;20211;-64
2022/05/16 08:22:29;;;;;;;5.03;2.70;;;20.50;99.90;;;;;;5055548;28;20232;-62
2022/05/16 08:24:56;;;;;;;6.57;2.83;;;20.60;99.90;;;;;;5055833;28;20206;-63
2022/05/16 08:27:23;;;;;;;2.43;2.10;;;20.60;99.90;;;;;;5054752;28;20209;-62
2022/05/16 08:29:50;;;;;;;5.70;2.50;;;20.70;99.90;;;;;;5055338;28;20205;-63
2022/05/16 08:32:19;;;;;;;6.07;2.40;;;20.80;99.90;;;;;;5054581;28;20232;-62
2022/05/16 08:34:46;;;;;;;7.27;2.90;;;21.00;99.90;;;;;;5055273;28;20209;-64
2022/05/16 08:40:03;;;;;;;10.80;2.67;;;21.10;99.90;;;;;;5055228;28;20255;-63
2022/05/16 08:42:43;;;;;;;5.87;2.20;;;21.30;99.90;;;;;;5054520;28;20232;-63
2022/05/16 08:45:15;;;;;;;3.97;2.67;;;21.30;99.90;;;;;;5054842;28;20561;-63
2022/05/16 08:47:53;;;;;;;5.30;2.83;;;21.30;99.90;;;;;;5054693;28;20212;-63
2022/05/16 08:50:24;;;;;;;3.73;2.27;;;21.30;99.90;;;;;;5054843;28;20201;-61
2022/05/16 08:52:56;;;;;;;6.50;2.73;;;21.40;99.90;;;;;;5054557;28;20276;-63
2022/05/16 08:55:31;;;;;;;4.43;2.53;;;21.40;99.90;;;;;;5054716;28;20699;-63
2022/05/16 08:58:03;;;;;;;7.70;2.87;;;21.20;99.90;;;;;;5054730;28;20213;-64
2022/05/16 09:00:35;;;;;;;4.80;2.70;;;21.10;99.90;;;;;;5054168;28;20619;-64
2022/05/16 09:03:05;;;;;;;6.10;2.83;;;21.00;99.90;;;;;;5054766;28;20229;-64
2022/05/16 09:05:37;;;;;;;6.30;2.90;;;20.80;99.90;;;;;;5054266;28;20244;-62
2022/05/16 09:08:07;;;;;;;7.37;2.90;;;20.90;99.90;;;;;;5054500;28;20674;-62
2022/05/16 09:10:51;;;;;;;6.23;2.57;;;20.70;99.90;;;;;;5054505;28;20259;-62
2022/05/16 09:13:27;;;;;;;9.03;3.10;;;20.60;99.90;;;;;;5054608;28;20210;-63
2022/05/16 09:16:03;;;;;;;5.60;3.10;;;20.20;99.90;;;;;;5053569;28;20209;-62
2022/05/16 09:18:36;;;;;;;5.87;2.57;;;20.20;99.90;;;;;;5054276;28;20675;-62
2022/05/16 09:21:11;;;;;;;5.53;3.43;;;20.10;99.90;;;;;;5053967;28;20785;-62
2022/05/16 09:23:55;;;;;;;11.13;3.17;;;20.10;99.90;;;;;;5054357;28;20224;-63
2022/05/16 09:26:35;;;;;;;4.60;2.90;;;20.10;99.90;;;;;;5053852;28;20289;-62
2022/05/16 09:29:13;;;;;;;6.07;2.60;;;20.10;99.90;;;;;;5053940;28;20209;-63
2022/05/16 09:31:44;;;;;;;6.97;2.53;;;20.20;99.90;;;;;;5053951;28;20239;-62
2022/05/16 09:34:12;;;;;;;5.00;2.67;;;20.10;99.90;;;;;;5053936;28;20624;-62
2022/05/16 09:36:41;;;;;;;10.57;2.90;;;20.10;99.90;;;;;;5053764;28;20209;-62
2022/05/16 09:39:10;;;;;;;5.17;2.47;;;20.10;99.90;;;;;;5053732;28;20205;-63
2022/05/16 09:41:43;;;;;;;4.70;2.60;;;20.20;99.90;;;;;;5053786;28;20230;-62
2022/05/16 09:44:15;;;;;;;5.47;2.80;;;20.20;99.90;;;;;;5053689;28;20210;-63
2022/05/16 09:46:44;;;;;;;3.80;2.80;;;20.10;99.90;;;;;;5053535;28;20206;-63
2022/05/16 09:49:14;;;;;;;7.90;2.97;;;20.10;99.90;;;;;;5053355;28;20202;-61
2022/05/16 09:51:47;;;;;;;6.60;2.73;;;20.10;99.90;;;;;;5053807;28;20248;-61
2022/05/16 09:54:19;;;;;;;8.63;2.97;;;20.30;99.90;;;;;;5053904;28;20213;-63
2022/05/16 09:56:58;;;;;;;4.90;2.73;;;20.50;99.90;;;;;;5053278;28;20210;-61
2022/05/16 09:59:42;;;;;;;6.60;2.60;;;20.80;99.90;;;;;;5053743;28;20275;-63
2022/05/16 10:02:20;;;;;;;8.70;2.77;;;21.00;99.90;;;;;;5054283;28;20225;-62
2022/05/16 10:04:52;;;;;;;5.13;3.00;;;21.40;99.90;;;;;;5051738;28;20649;-62
2022/05/16 10:07:26;;;;;;;4.13;2.50;;;21.70;99.90;;;;;;5053906;28;20205;-61
2022/05/16 10:09:54;;;;;;;8.87;3.00;;;22.10;99.90;;;;;;5053237;28;20309;-62
2022/05/16 10:12:24;;;;;;;8.33;2.53;;;22.30;99.90;;;;;;5052966;28;20309;-62
2022/05/16 10:14:50;;;;;;;6.50;2.40;;;22.40;99.90;;;;;;5053087;28;20271;-61
2022/05/16 10:17:25;;;;;;;3.83;2.70;;;22.60;99.90;;;;;;5052521;28;20283;-61
2022/05/16 10:19:54;;;;;;;4.80;2.50;;;22.50;99.90;;;;;;5053023;28;20210;-62
2022/05/16 10:22:25;;;;;;;9.17;3.00;;;22.60;99.90;;;;;;5052545;28;20229;-59
2022/05/16 10:24:54;;;;;;;5.30;2.37;;;22.80;99.90;;;;;;5052971;28;20213;-59
2022/05/16 10:27:28;;;;;;;4.73;2.50;;;23.20;99.90;;;;;;5052582;28;20205;-59
2022/05/16 10:29:56;;;;;;;4.87;2.60;;;23.20;99.90;;;;;;5052425;28;20730;-58
2022/05/16 10:35:19;;;;;;;5.57;2.50;;;23.50;99.90;;;;;;5052196;28;20209;-57
2022/05/16 10:37:50;;;;;;;3.20;2.10;;;23.50;99.90;;;;;;5052379;28;20570;-60
2022/05/16 10:40:29;;;;;;;6.10;2.63;;;23.50;99.90;;;;;;5052399;28;20610;-60
2022/05/16 10:43:11;;;;;;;4.23;2.07;;;23.60;99.90;;;;;;5052139;28;20271;-60
2022/05/16 10:45:43;;;;;;;6.63;2.43;;;23.70;99.90;;;;;;5052103;28;20205;-64
2022/05/16 10:48:17;;;;;;;6.63;2.60;;;23.90;99.90;;;;;;5051760;28;20210;-60
2022/05/16 10:50:47;;;;;;;4.90;2.40;;;24.20;99.90;;;;;;5052356;28;20207;-61
2022/05/16 10:53:20;;;;;;;5.70;2.17;;;24.40;99.90;;;;;;5052142;28;20205;-62
2022/05/16 10:55:55;;;;;;;4.43;2.40;;;24.50;99.90;;;;;;5051678;28;20206;-62
2022/05/16 10:58:34;;;;;;;4.83;2.13;;;24.80;99.90;;;;;;5052054;28;20554;-62
2022/05/16 11:01:09;;;;;;;3.93;2.00;;;25.20;99.90;;;;;;5052609;28;20233;-65
2022/05/16 11:03:46;;;;;;;4.53;2.00;;;25.50;99.90;;;;;;5052137;28;20252;-61
2022/05/16 11:06:34;;;;;;;4.20;2.00;;;25.50;99.90;;;;;;5051271;28;20213;-61
2022/05/16 11:09:10;;;;;;;8.17;2.60;;;25.40;99.90;;;;;;5051556;28;20205;-59
2022/05/16 11:11:43;;;;;;;5.40;2.47;;;25.10;99.90;;;;;;5052036;28;20775;-59
2022/05/16 11:14:17;;;;;;;6.47;2.77;;;25.20;99.90;;;;;;5051995;28;20205;-58
2022/05/16 11:16:44;;;;;;;5.03;2.67;;;25.30;99.90;;;;;;5050910;28;20284;-58
2022/05/16 11:19:28;;;;;;;5.37;2.27;;;25.10;99.90;;;;;;5052370;28;20236;-59
2022/05/16 11:22:03;;;;;;;5.30;2.50;;;25.30;99.90;;;;;;5052016;28;20229;-60
2022/05/16 11:24:36;;;;;;;4.17;2.43;;;25.40;99.90;;;;;;5051698;28;20244;-62
2022/05/16 11:27:16;;;;;;;5.00;2.57;;;25.40;99.90;;;;;;5050426;28;20213;-62
2022/05/16 11:29:52;;;;;;;4.70;2.37;;;25.80;99.90;;;;;;5051865;28;20276;-60
2022/05/16 11:32:29;;;;;;;5.03;2.40;;;26.00;99.90;;;;;;5051484;28;20283;-60
2022/05/16 11:35:04;;;;;;;4.63;2.73;;;26.30;99.90;;;;;;5050951;28;20209;-59
2022/05/16 11:37:44;;;;;;;5.53;2.00;;;26.20;99.90;;;;;;5051109;28;20213;-59
2022/05/16 11:40:19;;;;;;;3.33;2.00;;;26.30;99.90;;;;;;5051106;28;20251;-62
2022/05/16 11:42:54;;;;;;;4.10;1.90;;;26.40;99.90;;;;;;5051393;28;20279;-62
2022/05/16 11:45:38;;;;;;;4.00;2.10;;;26.70;99.90;;;;;;5051039;28;20209;-63
2022/05/16 11:48:23;;;;;;;4.53;2.10;;;26.60;99.90;;;;;;5051238;28;20259;-61
2022/05/16 11:51:10;;;;;;;6.33;2.20;;;26.40;99.90;;;;;;5050970;28;20209;-60
2022/05/16 11:53:48;;;;;;;5.17;2.20;;;26.80;99.90;;;;;;5051577;28;20428;-61
2022/05/16 12:02:15;;;;;;;8.77;2.30;;;27.20;99.90;;;;;;5051295;28;20641;-60
2022/05/16 12:04:44;;;;;;;8.33;2.37;;;27.10;99.90;;;;;;5050974;28;20225;-60
2022/05/16 12:07:21;;;;;;;4.77;2.10;;;27.20;99.90;;;;;;5051043;28;20267;-60
2022/05/16 12:09:55;;;;;;;6.23;2.17;;;27.40;99.90;;;;;;5051390;28;20291;-60
2022/05/16 12:12:38;;;;;;;4.13;2.30;;;27.60;99.90;;;;;;5051453;28;20284;-59
2022/05/16 12:15:19;;;;;;;5.23;2.60;;;27.70;99.90;;;;;;5050402;28;20216;-59
2022/05/16 12:17:53;;;;;;;2.87;2.37;;;27.40;99.90;;;;;;5051066;28;20300;-60
2022/05/16 12:20:55;;;;;;;5.67;1.97;;;27.40;99.90;;;;;;5050975;28;20214;-58
2022/05/16 12:23:57;;;;;;;4.13;2.10;;;27.60;99.90;;;;;;5045708;28;20221;-60
2022/05/16 12:26:48;;;;;;;4.80;2.30;;;27.30;99.90;;;;;;5050626;28;20252;-60
2022/05/16 12:29:20;;;;;;;6.33;2.13;;;27.10;99.90;;;;;;5040934;28;20205;-58
2022/05/16 12:31:52;;;;;;;3.97;2.23;;;27.30;99.90;;;;;;5050760;28;20225;-60
2022/05/16 12:34:48;;;;;;;7.23;2.20;;;26.90;99.90;;;;;;5051395;28;20269;-60
2022/05/16 12:37:17;;;;;;;5.60;2.30;;;26.40;99.90;;;;;;5050733;28;20209;-61
2022/05/16 12:39:52;;;;;;;4.33;2.30;;;26.10;99.90;;;;;;5050592;28;20206;-60
2022/05/16 12:42:37;;;;;;;6.17;2.60;;;26.30;99.90;;;;;;5050356;28;20228;-60
2022/05/16 12:45:18;;;;;;;5.40;2.00;;;26.10;99.90;;;;;;5052754;28;20205;-60
2022/05/16 12:48:05;;;;;;;5.30;2.03;;;26.10;99.90;;;;;;5054482;28;20201;-60
2022/05/16 12:50:49;;;;;;;7.57;2.87;;;26.40;99.90;;;;;;5054444;28;20206;-60
2022/05/16 12:53:42;;;;;;;3.97;2.13;;;26.50;99.90;;;;;;5054656;28;20602;-58
2022/05/16 12:56:19;;;;;;;5.67;2.30;;;26.60;99.90;;;;;;5024775;28;20648;-61
2022/05/16 12:58:51;;;;;;;4.83;2.97;;;26.60;99.90;;;;;;5054346;28;20205;-58
2022/05/16 13:01:28;;;;;;;4.57;2.80;;;26.50;99.90;;;;;;5054601;28;20245;-59
2022/05/16 13:04:08;;;;;;;7.13;2.70;;;26.50;99.90;;;;;;5054361;28;20222;-60
2022/05/16 13:06:54;;;;;;;8.33;2.37;;;26.00;99.90;;;;;;5053844;28;20206;-60
2022/05/16 13:09:43;;;;;;;5.07;2.10;;;26.00;99.90;;;;;;5053455;28;20208;-61
2022/05/16 13:12:23;;;;;;;6.37;2.40;;;26.10;99.90;;;;;;5054124;28;20720;-60
2022/05/16 13:15:01;;;;;;;3.03;2.50;;;26.00;99.90;;;;;;5054141;28;20604;-60
2022/05/16 13:17:34;;;;;;;3.93;2.27;;;26.10;99.90;;;;;;5053511;28;20635;-63
2022/05/16 13:20:03;;;;;;;5.53;2.57;;;26.20;99.90;;;;;;5054352;28;20560;-63
2022/05/16 13:22:34;;;;;;;5.57;2.07;;;26.10;99.90;;;;;;5054143;28;20291;-63
2022/05/16 13:25:01;;;;;;;5.13;2.50;;;26.00;99.90;;;;;;5053505;28;20708;-63
2022/05/16 13:30:16;;;;;;;6.87;3.10;;;25.40;99.90;;;;;;5053619;28;20209;-61
2022/05/16 13:32:43;;;;;;;6.83;3.23;;;24.70;99.90;;;;;;5053974;28;20225;-62
2022/05/16 13:35:13;;;;;;;6.47;3.20;;;24.00;99.90;;;;;;5053367;28;20209;-62
2022/05/16 13:37:44;;;;;;;6.77;3.67;;;23.70;99.90;;;;;;5053460;28;20269;-61